createdAt,value
2023-04-17T00:01:19.456Z,102626.47
2023-04-17T00:03:48.587Z,102625.03
2023-04-17T00:06:16.497Z,102620.47
2023-04-17T00:08:44.637Z,102625.41
2023-04-17T00:11:12.811Z,102626.69
2023-04-17T00:13:40.793Z,102622.78
2023-04-17T00:16:10.757Z,102602.28
2023-04-17T00:18:40.166Z,102608.34
2023-04-17T00:21:08.097Z,102620.66
2023-04-17T00:23:36.075Z,102619.63
2023-04-17T00:26:04.122Z,102419.41
2023-04-17T00:28:31.998Z,102622.72
2023-04-17T00:30:59.843Z,102630.09
2023-04-17T00:33:28.105Z,102604.16
2023-04-17T00:35:57.286Z,102632.03
2023-04-17T00:38:25.167Z,102631.50
2023-04-17T00:40:53.450Z,102605.78
2023-04-17T00:43:21.291Z,102627.72
2023-04-17T00:45:49.544Z,102632.75
2023-04-17T00:48:18.456Z,102627.31
2023-04-17T00:50:46.873Z,102632.22
2023-04-17T00:53:16.322Z,102636.34
2023-04-17T00:55:45.895Z,102598.69
2023-04-17T00:58:14.492Z,102639.16
2023-04-17T01:00:42.398Z,102636.31
2023-04-17T01:03:10.753Z,102642.75
2023-04-17T01:05:38.787Z,102643.25
2023-04-17T01:08:06.755Z,102644.22
2023-04-17T01:10:36.250Z,102640.44
2023-04-17T01:13:04.994Z,102647.81
2023-04-17T01:15:32.881Z,102660.59
2023-04-17T01:18:01.232Z,102644.94
2023-04-17T01:20:31.267Z,102576.97
2023-04-17T01:22:59.670Z,102588.94
2023-04-17T01:25:29.651Z,102650.31
2023-04-17T01:27:57.729Z,102649.75
2023-04-17T01:30:25.831Z,102658.56
2023-04-17T01:32:55.201Z,102660.72
2023-04-17T01:35:23.342Z,102659.25
2023-04-17T01:37:51.375Z,102666.09
2023-04-17T01:40:19.606Z,102675.41
2023-04-17T01:42:49.125Z,102672.66
2023-04-17T01:45:17.188Z,102566.66
2023-04-17T01:47:45.532Z,102669.38
2023-04-17T01:50:14.207Z,102577.28
2023-04-17T01:52:42.081Z,102674.13
2023-04-17T01:55:11.032Z,102540.97
2023-04-17T01:57:38.978Z,102675.22
2023-04-17T02:00:10.960Z,102674.03
2023-04-17T02:02:39.287Z,102602.38
2023-04-17T02:05:08.123Z,102621.06
2023-04-17T02:07:36.184Z,102672.41
2023-04-17T02:10:04.584Z,102594.41
2023-04-17T02:12:32.407Z,102675.47
2023-04-17T02:15:01.392Z,102618.78
2023-04-17T02:17:31.060Z,102655.16
2023-04-17T02:19:58.936Z,102662.94
2023-04-17T02:22:26.800Z,102680.50
2023-04-17T02:24:54.791Z,102684.75
2023-04-17T02:27:22.654Z,102686.75
2023-04-17T02:29:50.667Z,102692.06
2023-04-17T02:32:18.697Z,102692.69
2023-04-17T02:34:47.981Z,102689.97
2023-04-17T02:37:15.941Z,102605.09
2023-04-17T02:39:44.187Z,102693.03
2023-04-17T02:42:13.122Z,102701.84
2023-04-17T02:44:41.504Z,102701.53
2023-04-17T02:47:10.030Z,102703.97
2023-04-17T02:49:37.854Z,102701.53
2023-04-17T02:52:07.209Z,102699.56
2023-04-17T02:54:35.341Z,102707.94
2023-04-17T02:57:03.220Z,102704.59
2023-04-17T02:59:31.111Z,102708.72
2023-04-17T03:01:59.849Z,102660.50
2023-04-17T03:04:28.737Z,102707.50
2023-04-17T03:06:56.644Z,102664.59
2023-04-17T03:09:26.243Z,102714.97
2023-04-17T03:11:54.223Z,102713.75
2023-04-17T03:14:22.084Z,102713.19
2023-04-17T03:16:50.165Z,102599.16
2023-04-17T03:19:18.087Z,102681.03
2023-04-17T03:21:46.273Z,102712.41
2023-04-17T03:24:14.314Z,102718.63
2023-04-17T03:26:43.575Z,102681.94
2023-04-17T03:29:11.767Z,102721.53
2023-04-17T03:31:39.954Z,102695.47
2023-04-17T03:34:07.808Z,102728.22
2023-04-17T03:36:36.414Z,102695.28
2023-04-17T03:39:04.500Z,102728.38
2023-04-17T03:41:32.344Z,102650.88
2023-04-17T03:44:01.712Z,102733.41
2023-04-17T03:46:29.931Z,102240.75
2023-04-17T03:48:57.780Z,102737.50
2023-04-17T03:51:27.149Z,102741.75
2023-04-17T03:53:55.221Z,102677.75
2023-04-17T03:56:23.123Z,102648.19
2023-04-17T03:58:51.100Z,102652.56
2023-04-17T04:01:20.485Z,102719.00
2023-04-17T04:03:48.439Z,102708.38
2023-04-17T04:06:20.382Z,102751.78
2023-04-17T04:08:48.478Z,102699.28
2023-04-17T04:11:16.423Z,102748.44
2023-04-17T04:13:44.385Z,102755.84
2023-04-17T04:16:12.365Z,102760.56
2023-04-17T04:18:41.551Z,102739.91
2023-04-17T04:21:09.856Z,102756.59
2023-04-17T04:23:41.434Z,102762.81
2023-04-17T04:26:09.353Z,102764.94
2023-04-17T04:28:38.219Z,102775.09
2023-04-17T04:31:07.048Z,102772.03
2023-04-17T04:33:35.346Z,102583.84
2023-04-17T04:36:04.671Z,102757.75
2023-04-17T04:38:33.140Z,102781.41
2023-04-17T04:41:06.456Z,102784.44
2023-04-17T04:43:35.653Z,102792.91
2023-04-17T04:46:03.713Z,102727.81
2023-04-17T04:48:31.650Z,102777.53
2023-04-17T04:50:59.802Z,102775.25
2023-04-17T04:53:29.383Z,102795.22
2023-04-17T04:55:57.280Z,102803.72
2023-04-17T04:58:25.489Z,102805.19
2023-04-17T05:00:53.658Z,102799.69
2023-04-17T05:03:22.669Z,102628.81
2023-04-17T05:05:51.533Z,102805.09
2023-04-17T05:08:20.404Z,102807.47
2023-04-17T05:10:49.927Z,102760.44
2023-04-17T05:13:18.058Z,102817.91
2023-04-17T05:15:45.904Z,102809.81
2023-04-17T05:18:13.815Z,102813.09
2023-04-17T05:20:42.030Z,102819.75
2023-04-17T05:23:09.924Z,102637.50
2023-04-17T05:25:38.027Z,102701.09
2023-04-17T05:28:07.584Z,102717.59
2023-04-17T05:30:35.497Z,102821.19
2023-04-17T05:33:03.473Z,102820.97
2023-04-17T05:35:31.521Z,102619.06
2023-04-17T05:37:59.385Z,102824.19
2023-04-17T05:40:27.287Z,102820.59
2023-04-17T05:42:55.404Z,102698.91
2023-04-17T05:45:25.760Z,102773.84
2023-04-17T05:47:53.928Z,102795.84
2023-04-17T05:50:22.079Z,102827.72
2023-04-17T05:52:50.069Z,102830.34
2023-04-17T05:55:20.140Z,102837.13
2023-04-17T05:57:51.439Z,102836.25
2023-04-17T06:00:22.763Z,102836.41
2023-04-17T06:02:53.522Z,102805.50
2023-04-17T06:05:21.897Z,102839.31
2023-04-17T06:07:50.352Z,102834.38
2023-04-17T06:10:18.681Z,102838.94
2023-04-17T06:12:46.751Z,102797.66
2023-04-17T06:15:14.598Z,102844.00
2023-04-17T06:17:42.678Z,102842.97
2023-04-17T06:20:12.581Z,102838.53
2023-04-17T06:22:44.385Z,102833.97
2023-04-17T06:25:12.283Z,102814.22
2023-04-17T06:27:40.497Z,102844.06
2023-04-17T06:30:10.364Z,102841.41
2023-04-17T06:32:42.754Z,102848.50
2023-04-17T06:35:12.652Z,102843.00
2023-04-17T06:37:40.573Z,102822.59
2023-04-17T06:40:09.764Z,102840.97
2023-04-17T06:42:37.795Z,102846.25
2023-04-17T06:45:06.350Z,102839.66
2023-04-17T06:47:34.280Z,102845.34
2023-04-17T06:50:02.457Z,102790.69
2023-04-17T06:52:31.872Z,102813.72
2023-04-17T06:55:00.182Z,102753.97
2023-04-17T06:57:28.198Z,102843.75
2023-04-17T06:59:57.716Z,102843.69
2023-04-17T07:02:25.787Z,102797.53
2023-04-17T07:04:55.122Z,102838.56
2023-04-17T07:07:23.323Z,102844.47
2023-04-17T07:09:52.586Z,102832.97
2023-04-17T07:12:20.826Z,102839.13
2023-04-17T07:14:48.892Z,102837.44
2023-04-17T07:17:16.792Z,102836.78
2023-04-17T07:19:44.815Z,102833.78
2023-04-17T07:22:12.738Z,102832.28
2023-04-17T07:24:40.739Z,102835.25
2023-04-17T07:27:10.098Z,102778.84
2023-04-17T07:29:38.139Z,102809.97
2023-04-17T07:32:06.966Z,102779.78
2023-04-17T07:34:35.315Z,102703.69
2023-04-17T07:37:03.306Z,102776.06
2023-04-17T07:39:31.789Z,102737.31
2023-04-17T07:41:59.935Z,102844.63
2023-04-17T07:44:29.470Z,102818.03
2023-04-17T07:46:57.612Z,102853.31
2023-04-17T07:49:25.729Z,102860.16
2023-04-17T07:51:53.976Z,102711.03
2023-04-17T07:54:21.950Z,102855.59
2023-04-17T07:56:51.176Z,102771.81
2023-04-17T07:59:19.169Z,102702.22
2023-04-17T08:01:52.824Z,102852.00
2023-04-17T08:04:21.285Z,102855.88
2023-04-17T08:06:49.524Z,102847.63
2023-04-17T08:09:17.517Z,102848.56
2023-04-17T08:11:56.244Z,102846.72
2023-04-17T08:14:25.563Z,102825.91
2023-04-17T08:16:55.098Z,102709.59
2023-04-17T08:19:22.977Z,102712.13
2023-04-17T08:21:51.948Z,102811.31
2023-04-17T08:24:20.219Z,102850.16
2023-04-17T08:26:49.508Z,102848.75
2023-04-17T08:29:17.584Z,102855.22
2023-04-17T08:31:45.466Z,102850.78
2023-04-17T08:34:15.740Z,102852.56
2023-04-17T08:36:43.974Z,102840.38
2023-04-17T08:39:12.428Z,102854.69
2023-04-17T08:41:47.552Z,102848.91
2023-04-17T08:44:20.241Z,102861.53
2023-04-17T08:46:49.023Z,102857.06
2023-04-17T08:49:18.368Z,102825.56
2023-04-17T08:51:47.259Z,102859.41
2023-04-17T08:54:15.338Z,102863.59
2023-04-17T08:56:43.381Z,102842.63
2023-04-17T08:59:11.467Z,102860.75
2023-04-17T09:01:39.594Z,102842.06
2023-04-17T09:04:07.824Z,102787.56
2023-04-17T09:06:54.303Z,102867.06
2023-04-17T09:09:22.434Z,102850.44
2023-04-17T09:12:09.664Z,102859.56
2023-04-17T09:14:37.582Z,102866.22
2023-04-17T09:17:05.608Z,102843.63
2023-04-17T09:19:35.837Z,102865.78
2023-04-17T09:22:21.718Z,102861.34
2023-04-17T09:24:49.641Z,102860.91
2023-04-17T09:27:25.081Z,102861.09
2023-04-17T09:30:04.837Z,102860.41
2023-04-17T09:32:34.474Z,102862.22
2023-04-17T09:35:04.904Z,102860.59
2023-04-17T09:37:52.145Z,102861.97
2023-04-17T09:40:21.422Z,102864.81
2023-04-17T09:42:59.646Z,102858.72
2023-04-17T09:45:33.136Z,102878.22
2023-04-17T09:48:04.192Z,102869.41
2023-04-17T09:50:34.381Z,102795.28
2023-04-17T09:53:06.213Z,102863.97
2023-04-17T09:55:35.919Z,102867.81
2023-04-17T09:58:05.192Z,102866.34
2023-04-17T10:00:33.298Z,102827.88
2023-04-17T10:03:01.433Z,102868.28
2023-04-17T10:05:33.806Z,102852.44
2023-04-17T10:08:02.366Z,102725.63
2023-04-17T10:10:34.102Z,102866.28
2023-04-17T10:13:05.586Z,102862.03
2023-04-17T10:15:34.820Z,102873.91
2023-04-17T10:18:24.942Z,102871.63
2023-04-17T10:20:55.311Z,102862.81
2023-04-17T10:23:31.531Z,102870.06
2023-04-17T10:26:39.417Z,102860.38
2023-04-17T10:29:09.243Z,102872.91
2023-04-17T10:32:17.498Z,102854.16
2023-04-17T10:34:46.678Z,102837.09
2023-04-17T10:37:16.221Z,102870.97
2023-04-17T10:39:53.000Z,102864.00
2023-04-17T10:42:21.982Z,102870.28
2023-04-17T10:44:56.865Z,102847.88
2023-04-17T10:47:33.587Z,102861.81
2023-04-17T10:50:04.431Z,102873.19
2023-04-17T10:52:44.609Z,102868.66
2023-04-17T10:55:17.546Z,102876.78
2023-04-17T10:58:00.749Z,102864.44
2023-04-17T11:00:33.286Z,102883.41
2023-04-17T11:03:03.687Z,102871.91
2023-04-17T11:05:32.420Z,102882.59
2023-04-17T11:08:00.794Z,102876.41
2023-04-17T11:10:30.007Z,102765.06
2023-04-17T11:12:57.835Z,102889.72
2023-04-17T11:15:31.570Z,102884.38
2023-04-17T11:18:00.430Z,102897.88
2023-04-17T11:20:30.837Z,102883.75
2023-04-17T11:23:02.441Z,102875.75
2023-04-17T11:25:33.693Z,102882.09
2023-04-17T11:28:03.099Z,102883.84
2023-04-17T11:30:34.563Z,102839.16
2023-04-17T11:33:04.443Z,102845.91
2023-04-17T11:35:34.078Z,102894.19
2023-04-17T11:38:14.192Z,102888.91
2023-04-17T11:40:46.745Z,102701.88
2023-04-17T11:43:15.126Z,102903.88
2023-04-17T11:45:47.317Z,102754.34
2023-04-17T11:48:16.585Z,102809.13
2023-04-17T11:50:45.550Z,102889.28
2023-04-17T11:53:18.402Z,102894.91
2023-04-17T11:55:48.564Z,102892.34
2023-04-17T11:58:16.818Z,102903.72
2023-04-17T12:00:46.422Z,102908.75
2023-04-17T12:03:35.325Z,102902.88
2023-04-17T12:06:05.355Z,102870.69
2023-04-17T12:08:43.680Z,102836.19
2023-04-17T12:11:19.476Z,102888.50
2023-04-17T12:13:48.799Z,102906.50
2023-04-17T12:16:18.286Z,102869.88
2023-04-17T12:18:46.787Z,102901.19
2023-04-17T12:21:15.160Z,102903.81
2023-04-17T12:23:43.375Z,102905.44
2023-04-17T12:26:11.315Z,102891.75
2023-04-17T12:28:39.493Z,102896.09
2023-04-17T12:31:07.759Z,102899.66
2023-04-17T12:33:36.987Z,102903.53
2023-04-17T12:36:06.483Z,102906.19
2023-04-17T12:38:34.486Z,102899.06
2023-04-17T12:41:02.260Z,102898.56
2023-04-17T12:43:30.122Z,102894.44
2023-04-17T12:45:58.683Z,102838.56
2023-04-17T12:48:26.674Z,102902.78
2023-04-17T12:50:56.096Z,102862.88
2023-04-17T12:53:24.310Z,102856.31
2023-04-17T12:55:52.186Z,102899.66
2023-04-17T12:58:20.573Z,102903.44
2023-04-17T13:00:48.782Z,102771.28
2023-04-17T13:03:16.833Z,102899.28
2023-04-17T13:05:45.218Z,102845.41
2023-04-17T13:08:16.455Z,102886.34
2023-04-17T13:10:44.282Z,102833.38
2023-04-17T13:13:12.268Z,102918.91
2023-04-17T13:15:40.259Z,102906.25
2023-04-17T13:18:08.266Z,102898.66
2023-04-17T13:20:36.437Z,102909.09
2023-04-17T13:23:04.426Z,102917.41
2023-04-17T13:25:33.910Z,102847.19
2023-04-17T13:28:01.909Z,102894.19
2023-04-17T13:30:29.873Z,102917.47
2023-04-17T13:32:57.680Z,102910.13
2023-04-17T13:35:25.655Z,102919.59
2023-04-17T13:37:55.055Z,102912.53
2023-04-17T13:40:22.938Z,102800.88
2023-04-17T13:42:52.638Z,102810.69
2023-04-17T13:45:20.674Z,102915.88
2023-04-17T13:47:48.564Z,102918.59
2023-04-17T13:50:16.514Z,102913.72
2023-04-17T13:52:44.549Z,102918.94
2023-04-17T13:55:14.814Z,102925.13
2023-04-17T13:57:42.808Z,102856.84
2023-04-17T14:00:13.732Z,102924.19
2023-04-17T14:02:42.700Z,102902.63
2023-04-17T14:05:13.547Z,102920.66
2023-04-17T14:07:43.779Z,102924.94
2023-04-17T14:10:12.236Z,102924.94
2023-04-17T14:12:40.145Z,102878.91
2023-04-17T14:15:09.359Z,102928.81
2023-04-17T14:17:42.961Z,102900.22
2023-04-17T14:20:13.204Z,102931.34
2023-04-17T14:22:41.024Z,102937.69
2023-04-17T14:25:12.459Z,102939.03
2023-04-17T14:27:40.609Z,102932.63
2023-04-17T14:30:09.661Z,102904.13
2023-04-17T14:32:39.676Z,102941.03
2023-04-17T14:35:08.647Z,102934.31
2023-04-17T14:37:36.629Z,102944.28
2023-04-17T14:40:05.182Z,102951.13
2023-04-17T14:42:40.810Z,102938.25
2023-04-17T14:45:19.186Z,102954.56
2023-04-17T14:47:48.649Z,102953.75
2023-04-17T14:50:16.556Z,102958.53
2023-04-17T14:52:44.491Z,102957.13
2023-04-17T14:55:13.337Z,102925.41
2023-04-17T14:57:41.411Z,102953.25
2023-04-17T15:00:10.261Z,102956.16
2023-04-17T15:02:39.579Z,102956.81
2023-04-17T15:05:10.492Z,102882.81
2023-04-17T15:07:38.286Z,102956.97
2023-04-17T15:10:07.019Z,102950.50
2023-04-17T15:12:34.969Z,102960.84
2023-04-17T15:15:03.199Z,102859.09
2023-04-17T15:17:31.340Z,102957.34
2023-04-17T15:20:00.850Z,102876.63
2023-04-17T15:22:30.131Z,102933.78
2023-04-17T15:24:58.142Z,102959.63
2023-04-17T15:27:26.169Z,102952.53
2023-04-17T15:29:54.068Z,102950.81
2023-04-17T15:32:22.124Z,102954.47
2023-04-17T15:34:50.105Z,102908.13
2023-04-17T15:37:17.982Z,102970.00
2023-04-17T15:39:47.417Z,102961.19
2023-04-17T15:42:15.543Z,102918.22
2023-04-17T15:44:43.729Z,102946.84
2023-04-17T15:47:11.669Z,102966.56
2023-04-17T15:49:39.695Z,102734.69
2023-04-17T15:52:08.355Z,102953.13
2023-04-17T15:54:36.609Z,102944.03
2023-04-17T15:57:06.038Z,102968.91
2023-04-17T15:59:34.114Z,102949.16
2023-04-17T16:02:04.079Z,102973.06
2023-04-17T16:04:32.379Z,102979.88
2023-04-17T16:07:00.461Z,102988.66
2023-04-17T16:09:28.419Z,102989.31
2023-04-17T16:11:57.197Z,102982.38
2023-04-17T16:14:27.957Z,102987.91
2023-04-17T16:16:55.897Z,102995.75
2023-04-17T16:19:23.900Z,102983.03
2023-04-17T16:21:51.740Z,103003.66
2023-04-17T16:24:19.689Z,103000.09
2023-04-17T16:26:47.700Z,102999.06
2023-04-17T16:29:15.616Z,102998.13
2023-04-17T16:31:45.120Z,102954.84
2023-04-17T16:34:14.437Z,102985.84
2023-04-17T16:36:45.295Z,103009.59
2023-04-17T16:39:17.542Z,103004.25
2023-04-17T16:41:46.932Z,102837.72
2023-04-17T16:44:14.871Z,103014.25
2023-04-17T16:47:09.471Z,103012.06
2023-04-17T16:49:32.382Z,102971.97
2023-04-17T16:52:00.552Z,103022.75
2023-04-17T16:54:28.482Z,103018.56
2023-04-17T16:56:56.470Z,103031.75
2023-04-17T16:59:24.798Z,103040.69
2023-04-17T17:01:54.074Z,103008.78
2023-04-17T17:04:23.460Z,103040.47
2023-04-17T17:06:52.698Z,102984.75
2023-04-17T17:09:20.704Z,103056.19
2023-04-17T17:11:49.058Z,103059.53
2023-04-17T17:14:20.017Z,103001.16
2023-04-17T17:16:47.943Z,103063.50
2023-04-17T17:19:17.173Z,103041.09
2023-04-17T17:21:45.215Z,103083.41
2023-04-17T17:24:13.073Z,102990.94
2023-04-17T17:26:40.978Z,103009.09
2023-04-17T17:29:09.365Z,103081.53
2023-04-17T17:31:37.269Z,103081.06
2023-04-17T17:34:22.617Z,103053.03
2023-04-17T17:36:54.895Z,103080.66
2023-04-17T17:39:22.880Z,103086.66
2023-04-17T17:41:50.795Z,103090.28
2023-04-17T17:44:19.023Z,103093.78
2023-04-17T17:46:47.092Z,103098.84
2023-04-17T17:49:14.990Z,103096.56
2023-04-17T17:51:45.942Z,103079.84
2023-04-17T17:54:15.295Z,103098.59
2023-04-17T17:56:44.333Z,103052.56
2023-04-17T17:59:12.415Z,103107.13
2023-04-17T18:01:40.581Z,103108.25
2023-04-17T18:04:08.987Z,103051.31
2023-04-17T18:06:37.251Z,103093.97
2023-04-17T18:09:06.008Z,103114.16
2023-04-17T18:11:35.322Z,103011.34
2023-04-17T18:14:03.390Z,103053.56
2023-04-17T18:16:32.724Z,103099.06
2023-04-17T18:19:03.603Z,103098.41
2023-04-17T18:24:00.320Z,102681.59
2023-04-17T18:26:28.488Z,103093.94
2023-04-17T18:28:57.812Z,103038.75
2023-04-17T18:31:26.742Z,103112.72
2023-04-17T18:33:55.086Z,103050.00
2023-04-17T18:36:23.088Z,103154.00
2023-04-17T18:38:51.049Z,103153.63
2023-04-17T18:41:19.024Z,103170.69
2023-04-17T18:43:46.947Z,103151.81
2023-04-17T18:46:18.248Z,103124.75
2023-04-17T18:48:46.320Z,103156.78
2023-04-17T18:51:15.727Z,103094.75
2023-04-17T18:53:43.679Z,103130.66
2023-04-17T18:56:13.797Z,103127.63
2023-04-17T18:58:42.041Z,103125.50
2023-04-17T19:01:10.726Z,103121.16
2023-04-17T19:03:41.911Z,103172.09
2023-04-17T19:06:14.439Z,103171.56
2023-04-17T19:08:42.815Z,103143.72
2023-04-17T19:11:10.656Z,103169.53
2023-04-17T19:13:38.824Z,103177.88
2023-04-17T19:16:07.032Z,103189.88
2023-04-17T19:18:34.976Z,103182.81
2023-04-17T19:21:07.049Z,103173.81
2023-04-17T19:23:35.050Z,103174.41
2023-04-17T19:26:02.916Z,103168.66
2023-04-17T19:28:31.212Z,103167.44
2023-04-17T19:31:00.897Z,103190.34
2023-04-17T19:33:28.810Z,103175.22
2023-04-17T19:35:58.403Z,103168.22
2023-04-17T19:38:27.995Z,103009.38
2023-04-17T19:41:14.866Z,103187.13
2023-04-17T19:43:43.152Z,103181.34
2023-04-17T19:46:11.296Z,103184.13
2023-04-17T19:48:39.271Z,103194.38
2023-04-17T19:51:07.759Z,103197.34
2023-04-17T19:53:38.498Z,103190.88
2023-04-17T19:56:08.613Z,103110.34
2023-04-17T19:58:37.563Z,103196.34
2023-04-17T20:01:06.741Z,103164.63
2023-04-17T20:03:35.769Z,103193.84
2023-04-17T20:06:04.441Z,103185.22
2023-04-17T20:08:32.498Z,103191.59
2023-04-17T20:11:01.977Z,103191.25
2023-04-17T20:13:30.067Z,103194.56
2023-04-17T20:15:57.956Z,103186.25
2023-04-17T20:18:26.143Z,103075.81
2023-04-17T20:20:54.328Z,103197.19
2023-04-17T20:23:22.421Z,103199.19
2023-04-17T20:25:50.677Z,103156.78
2023-04-17T20:28:20.132Z,103197.34
2023-04-17T20:30:48.245Z,103191.91
2023-04-17T20:33:16.310Z,103201.22
2023-04-17T20:35:44.324Z,103207.78
2023-04-17T20:38:12.227Z,103206.28
2023-04-17T20:40:40.244Z,103208.44
2023-04-17T20:43:08.416Z,103214.22
2023-04-17T20:45:37.706Z,103156.69
2023-04-17T20:48:06.983Z,103219.09
2023-04-17T20:50:35.198Z,103195.72
2023-04-17T20:53:05.543Z,103222.81
2023-04-17T20:55:36.249Z,103228.34
2023-04-17T20:58:04.311Z,103230.34
2023-04-17T21:00:32.548Z,103225.56
2023-04-17T21:03:02.879Z,103230.16
2023-04-17T21:05:31.012Z,103231.63
2023-04-17T21:07:58.917Z,103204.19
2023-04-17T21:10:26.990Z,103229.06
2023-04-17T21:12:56.039Z,103230.41
2023-04-17T21:15:23.923Z,103229.13
2023-04-17T21:17:51.972Z,103231.47
2023-04-17T21:20:22.881Z,103232.28
2023-04-17T21:22:52.793Z,103227.59
2023-04-17T21:25:21.726Z,103234.13
2023-04-17T21:27:49.606Z,103233.09
2023-04-17T21:30:17.795Z,103220.41
2023-04-17T21:32:47.522Z,103233.94
2023-04-17T21:35:15.565Z,103216.00
2023-04-17T21:37:44.804Z,103240.63
2023-04-17T21:40:15.966Z,103246.50
2023-04-17T21:42:45.999Z,103248.59
2023-04-17T21:45:16.426Z,103247.06
2023-04-17T21:47:44.379Z,103252.69
2023-04-17T21:50:12.396Z,103254.91
2023-04-17T21:52:40.670Z,103239.28
2023-04-17T21:55:10.467Z,103251.53
2023-04-17T21:57:38.848Z,103234.63
2023-04-17T22:00:11.623Z,103257.78
2023-04-17T22:02:39.761Z,103222.66
2023-04-17T22:05:08.214Z,103228.91
2023-04-17T22:07:43.975Z,103221.56
2023-04-17T22:10:21.052Z,103256.13
2023-04-17T22:12:49.190Z,103259.91
2023-04-17T22:15:17.227Z,103257.81
2023-04-17T22:17:45.437Z,103264.16
2023-04-17T22:20:14.112Z,103258.56
2023-04-17T22:22:42.025Z,103256.19
2023-04-17T22:25:10.528Z,103260.63
2023-04-17T22:27:39.929Z,103267.91
2023-04-17T22:30:08.678Z,103265.03
2023-04-17T22:32:36.634Z,103213.72
2023-04-17T22:35:04.826Z,103256.97
2023-04-17T22:37:32.856Z,103262.81
2023-04-17T22:40:01.052Z,103210.31
2023-04-17T22:42:29.036Z,103262.16
2023-04-17T22:44:58.537Z,103189.00
2023-04-17T22:47:26.580Z,103251.19
2023-04-17T22:49:55.351Z,103267.97
2023-04-17T22:52:23.213Z,103264.19
2023-04-17T22:54:51.165Z,103263.66
2023-04-17T22:57:19.198Z,103262.34
2023-04-17T22:59:47.073Z,103239.81
2023-04-17T23:02:16.736Z,103267.81
2023-04-17T23:04:47.210Z,103273.53
2023-04-17T23:07:15.120Z,103228.28
2023-04-17T23:09:43.275Z,103269.19
2023-04-17T23:12:11.374Z,103222.41
2023-04-17T23:14:41.723Z,103272.94
2023-04-17T23:17:11.517Z,103274.22
2023-04-17T23:19:41.202Z,103256.63
2023-04-17T23:22:09.196Z,103275.50
2023-04-17T23:24:37.456Z,103265.31
2023-04-17T23:27:05.644Z,103271.78
2023-04-17T23:29:33.555Z,103275.53
2023-04-17T23:32:01.548Z,103263.16
2023-04-17T23:34:29.544Z,103274.06
2023-04-17T23:36:58.785Z,103273.91
2023-04-17T23:39:26.875Z,103224.66
2023-04-17T23:41:54.936Z,103268.03
2023-04-17T23:44:22.882Z,103065.25
2023-04-17T23:46:51.280Z,103276.88
2023-04-17T23:49:19.541Z,103283.75
2023-04-17T23:51:47.423Z,103231.19
2023-04-17T23:54:17.420Z,103172.38
2023-04-17T23:56:45.412Z,103092.59
2023-04-17T23:59:13.537Z,103288.31
